Jefferson, South Dakota
Current Conditions -  °F | °C
As of 10:02 PM on Sunday 23 Nov 2014 (Local Time) from KSUX Reporting Station
Overcast Overcast  
Wind Chill: 19°   Ceiling: 2800
Heat Index: 33°   Visibility: 10mi
Dew Point: 22°   Wind: 29mph
Humidity: 64%   Direction: 320°NW
Pressure: 29.54"   Gusts: 37mph
Location:  42.6°N, 96.56°W
Report Text: KSUX 240402Z 32025G32KT 10SM BKN028 OVC038 01/M06 A2954 RMK AO2 PK WND 32032/0402 T00061056
Loading
Personal Weather Stations






























Interactive Weather Map New forecast layout! Learn more

10-Day Weather Forecast

Advertisements
Track Severe Weather on mobile